sensor_id;sensor_type;location;lat;lon;timestamp;P1;durP1;ratioP1;P2;durP2;ratioP2
57395;SDS011;43222;52.912;6.940;2023-08-31T00:00:55;8.13;;;2.83;;
57395;SDS011;43222;52.912;6.940;2023-08-31T00:03:21;6.43;;;2.50;;
57395;SDS011;43222;52.912;6.940;2023-08-31T00:05:47;9.27;;;2.70;;
57395;SDS011;43222;52.912;6.940;2023-08-31T00:08:16;11.65;;;2.85;;
57395;SDS011;43222;52.912;6.940;2023-08-31T00:10:42;7.57;;;2.55;;
57395;SDS011;43222;52.912;6.940;2023-08-31T00:13:08;6.07;;;2.63;;
57395;SDS011;43222;52.912;6.940;2023-08-31T00:15:35;8.13;;;2.33;;
57395;SDS011;43222;52.912;6.940;2023-08-31T00:18:02;7.60;;;2.83;;
57395;SDS011;43222;52.912;6.940;2023-08-31T00:20:31;6.22;;;2.30;;
57395;SDS011;43222;52.912;6.940;2023-08-31T00:22:58;7.53;;;2.70;;
57395;SDS011;43222;52.912;6.940;2023-08-31T00:25:24;6.97;;;2.50;;
57395;SDS011;43222;52.912;6.940;2023-08-31T00:27:50;5.82;;;2.33;;
57395;SDS011;43222;52.912;6.940;2023-08-31T00:30:18;7.68;;;2.88;;
57395;SDS011;43222;52.912;6.940;2023-08-31T00:32:45;6.47;;;2.60;;
57395;SDS011;43222;52.912;6.940;2023-08-31T00:35:15;6.80;;;2.65;;
57395;SDS011;43222;52.912;6.940;2023-08-31T00:37:42;6.75;;;2.65;;
57395;SDS011;43222;52.912;6.940;2023-08-31T00:40:08;9.90;;;2.95;;
57395;SDS011;43222;52.912;6.940;2023-08-31T00:42:36;12.13;;;3.00;;
57395;SDS011;43222;52.912;6.940;2023-08-31T00:45:02;7.57;;;2.67;;
57395;SDS011;43222;52.912;6.940;2023-08-31T00:47:29;7.13;;;2.75;;
57395;SDS011;43222;52.912;6.940;2023-08-31T00:49:55;8.52;;;3.30;;
57395;SDS011;43222;52.912;6.940;2023-08-31T00:52:21;9.30;;;3.10;;
57395;SDS011;43222;52.912;6.940;2023-08-31T00:54:47;9.82;;;3.40;;
57395;SDS011;43222;52.912;6.940;2023-08-31T00:57:14;10.65;;;3.13;;
57395;SDS011;43222;52.912;6.940;2023-08-31T00:59:40;12.05;;;3.30;;
57395;SDS011;43222;52.912;6.940;2023-08-31T01:02:11;10.15;;;3.30;;
57395;SDS011;43222;52.912;6.940;2023-08-31T01:04:48;8.90;;;3.40;;
57395;SDS011;43222;52.912;6.940;2023-08-31T01:12:53;13.15;;;3.42;;
57395;SDS011;43222;52.912;6.940;2023-08-31T01:15:20;15.57;;;3.85;;
57395;SDS011;43222;52.912;6.940;2023-08-31T01:17:50;9.70;;;3.67;;
57395;SDS011;43222;52.912;6.940;2023-08-31T01:23:15;7.65;;;2.92;;
57395;SDS011;43222;52.912;6.940;2023-08-31T01:25:42;9.77;;;4.05;;
57395;SDS011;43222;52.912;6.940;2023-08-31T01:28:09;8.43;;;3.17;;
57395;SDS011;43222;52.912;6.940;2023-08-31T01:30:36;9.02;;;3.28;;
57395;SDS011;43222;52.912;6.940;2023-08-31T01:33:02;9.40;;;3.30;;
57395;SDS011;43222;52.912;6.940;2023-08-31T01:35:30;9.55;;;3.42;;
57395;SDS011;43222;52.912;6.940;2023-08-31T01:37:58;8.63;;;3.38;;
57395;SDS011;43222;52.912;6.940;2023-08-31T01:40:27;7.65;;;3.40;;
57395;SDS011;43222;52.912;6.940;2023-08-31T01:42:57;10.50;;;3.20;;
57395;SDS011;43222;52.912;6.940;2023-08-31T01:45:24;11.07;;;3.63;;
57395;SDS011;43222;52.912;6.940;2023-08-31T01:47:51;10.23;;;3.53;;
57395;SDS011;43222;52.912;6.940;2023-08-31T01:50:17;9.40;;;3.25;;
57395;SDS011;43222;52.912;6.940;2023-08-31T01:52:43;7.95;;;3.25;;
57395;SDS011;43222;52.912;6.940;2023-08-31T01:55:09;8.55;;;3.10;;
57395;SDS011;43222;52.912;6.940;2023-08-31T01:57:38;9.13;;;2.97;;
57395;SDS011;43222;52.912;6.940;2023-08-31T02:00:04;8.18;;;3.45;;
57395;SDS011;43222;52.912;6.940;2023-08-31T02:02:31;8.60;;;3.40;;
57395;SDS011;43222;52.912;6.940;2023-08-31T02:04:57;7.72;;;3.17;;
57395;SDS011;43222;52.912;6.940;2023-08-31T02:07:26;8.75;;;3.10;;
57395;SDS011;43222;52.912;6.940;2023-08-31T02:09:52;9.10;;;3.13;;
57395;SDS011;43222;52.912;6.940;2023-08-31T02:12:18;9.95;;;3.53;;
57395;SDS011;43222;52.912;6.940;2023-08-31T02:14:44;7.68;;;3.35;;
57395;SDS011;43222;52.912;6.940;2023-08-31T02:17:10;10.35;;;3.70;;
57395;SDS011;43222;52.912;6.940;2023-08-31T02:19:36;9.75;;;3.53;;
57395;SDS011;43222;52.912;6.940;2023-08-31T02:22:02;8.90;;;3.45;;
57395;SDS011;43222;52.912;6.940;2023-08-31T02:24:29;7.68;;;3.55;;
57395;SDS011;43222;52.912;6.940;2023-08-31T02:26:55;8.38;;;3.50;;
57395;SDS011;43222;52.912;6.940;2023-08-31T02:29:22;9.75;;;3.60;;
57395;SDS011;43222;52.912;6.940;2023-08-31T02:31:48;9.05;;;3.58;;
57395;SDS011;43222;52.912;6.940;2023-08-31T02:34:14;8.60;;;3.53;;
57395;SDS011;43222;52.912;6.940;2023-08-31T02:36:40;8.57;;;3.90;;
57395;SDS011;43222;52.912;6.940;2023-08-31T02:39:06;8.48;;;3.65;;
57395;SDS011;43222;52.912;6.940;2023-08-31T02:41:32;11.80;;;4.00;;
57395;SDS011;43222;52.912;6.940;2023-08-31T02:43:58;15.00;;;4.28;;
57395;SDS011;43222;52.912;6.940;2023-08-31T02:46:24;10.68;;;4.25;;
57395;SDS011;43222;52.912;6.940;2023-08-31T02:48:50;15.68;;;4.70;;
57395;SDS011;43222;52.912;6.940;2023-08-31T02:51:16;9.32;;;4.20;;
57395;SDS011;43222;52.912;6.940;2023-08-31T02:53:43;9.65;;;4.50;;
57395;SDS011;43222;52.912;6.940;2023-08-31T02:56:09;10.57;;;4.85;;
57395;SDS011;43222;52.912;6.940;2023-08-31T02:58:35;10.77;;;4.80;;
57395;SDS011;43222;52.912;6.940;2023-08-31T03:01:07;11.45;;;5.35;;
57395;SDS011;43222;52.912;6.940;2023-08-31T03:03:36;9.52;;;4.65;;
57395;SDS011;43222;52.912;6.940;2023-08-31T03:06:02;10.98;;;5.95;;
57395;SDS011;43222;52.912;6.940;2023-08-31T03:08:28;11.35;;;5.30;;
57395;SDS011;43222;52.912;6.940;2023-08-31T03:10:55;12.18;;;5.18;;
57395;SDS011;43222;52.912;6.940;2023-08-31T03:13:21;12.93;;;5.88;;
57395;SDS011;43222;52.912;6.940;2023-08-31T03:15:47;9.50;;;5.78;;
57395;SDS011;43222;52.912;6.940;2023-08-31T03:18:13;10.50;;;5.07;;
57395;SDS011;43222;52.912;6.940;2023-08-31T03:20:39;9.55;;;5.60;;
57395;SDS011;43222;52.912;6.940;2023-08-31T03:23:05;12.13;;;6.03;;
57395;SDS011;43222;52.912;6.940;2023-08-31T03:25:31;9.38;;;5.13;;
57395;SDS011;43222;52.912;6.940;2023-08-31T03:27:57;12.18;;;5.65;;
57395;SDS011;43222;52.912;6.940;2023-08-31T03:30:23;12.73;;;5.97;;
57395;SDS011;43222;52.912;6.940;2023-08-31T03:32:50;10.13;;;6.28;;
57395;SDS011;43222;52.912;6.940;2023-08-31T03:35:16;11.50;;;6.50;;
57395;SDS011;43222;52.912;6.940;2023-08-31T03:37:42;12.02;;;6.85;;
57395;SDS011;43222;52.912;6.940;2023-08-31T03:40:08;12.38;;;6.43;;
57395;SDS011;43222;52.912;6.940;2023-08-31T03:42:34;10.75;;;6.25;;
57395;SDS011;43222;52.912;6.940;2023-08-31T03:45:00;10.18;;;6.07;;
57395;SDS011;43222;52.912;6.940;2023-08-31T03:47:28;7.90;;;6.28;;
57395;SDS011;43222;52.912;6.940;2023-08-31T03:49:55;9.15;;;5.78;;
57395;SDS011;43222;52.912;6.940;2023-08-31T03:52:21;11.23;;;6.53;;
57395;SDS011;43222;52.912;6.940;2023-08-31T03:54:48;9.82;;;6.40;;
57395;SDS011;43222;52.912;6.940;2023-08-31T03:57:14;9.60;;;6.90;;
57395;SDS011;43222;52.912;6.940;2023-08-31T03:59:40;10.30;;;6.82;;
57395;SDS011;43222;52.912;6.940;2023-08-31T04:02:06;11.35;;;6.65;;
57395;SDS011;43222;52.912;6.940;2023-08-31T04:04:32;9.93;;;6.65;;
57395;SDS011;43222;52.912;6.940;2023-08-31T04:06:59;10.02;;;6.55;;
57395;SDS011;43222;52.912;6.940;2023-08-31T04:09:25;8.88;;;6.55;;
57395;SDS011;43222;52.912;6.940;2023-08-31T04:11:51;9.80;;;6.97;;
57395;SDS011;43222;52.912;6.940;2023-08-31T04:14:17;9.23;;;6.70;;
57395;SDS011;43222;52.912;6.940;2023-08-31T04:16:43;8.65;;;6.40;;
57395;SDS011;43222;52.912;6.940;2023-08-31T04:19:10;9.60;;;7.20;;
57395;SDS011;43222;52.912;6.940;2023-08-31T04:21:36;9.45;;;6.50;;
57395;SDS011;43222;52.912;6.940;2023-08-31T04:24:03;8.73;;;6.43;;
57395;SDS011;43222;52.912;6.940;2023-08-31T04:26:30;9.15;;;6.90;;
57395;SDS011;43222;52.912;6.940;2023-08-31T04:28:56;9.57;;;6.93;;
57395;SDS011;43222;52.912;6.940;2023-08-31T04:31:22;8.65;;;6.30;;
57395;SDS011;43222;52.912;6.940;2023-08-31T04:33:48;8.77;;;6.45;;
57395;SDS011;43222;52.912;6.940;2023-08-31T04:36:18;10.77;;;6.60;;
57395;SDS011;43222;52.912;6.940;2023-08-31T04:38:44;10.80;;;6.75;;
57395;SDS011;43222;52.912;6.940;2023-08-31T04:41:11;9.80;;;6.35;;
57395;SDS011;43222;52.912;6.940;2023-08-31T04:43:37;9.15;;;6.03;;
57395;SDS011;43222;52.912;6.940;2023-08-31T04:46:03;8.50;;;5.70;;
57395;SDS011;43222;52.912;6.940;2023-08-31T04:48:29;8.10;;;5.95;;
57395;SDS011;43222;52.912;6.940;2023-08-31T04:50:56;9.35;;;5.90;;
57395;SDS011;43222;52.912;6.940;2023-08-31T04:53:22;8.20;;;5.93;;
57395;SDS011;43222;52.912;6.940;2023-08-31T04:55:48;8.85;;;5.70;;
57395;SDS011;43222;52.912;6.940;2023-08-31T04:58:14;8.50;;;5.90;;
57395;SDS011;43222;52.912;6.940;2023-08-31T05:00:40;8.77;;;5.03;;
57395;SDS011;43222;52.912;6.940;2023-08-31T05:03:07;8.15;;;5.97;;
57395;SDS011;43222;52.912;6.940;2023-08-31T05:05:33;9.82;;;6.65;;
57395;SDS011;43222;52.912;6.940;2023-08-31T05:07:59;9.70;;;5.55;;
57395;SDS011;43222;52.912;6.940;2023-08-31T05:10:25;8.77;;;5.68;;
57395;SDS011;43222;52.912;6.940;2023-08-31T05:12:51;8.35;;;5.75;;
57395;SDS011;43222;52.912;6.940;2023-08-31T05:15:17;9.10;;;5.90;;
57395;SDS011;43222;52.912;6.940;2023-08-31T05:17:43;9.10;;;5.18;;
57395;SDS011;43222;52.912;6.940;2023-08-31T05:20:10;8.25;;;4.70;;
57395;SDS011;43222;52.912;6.940;2023-08-31T05:22:36;11.13;;;5.80;;
57395;SDS011;43222;52.912;6.940;2023-08-31T05:25:02;9.68;;;4.90;;
57395;SDS011;43222;52.912;6.940;2023-08-31T05:27:29;8.75;;;4.80;;
57395;SDS011;43222;52.912;6.940;2023-08-31T05:29:55;8.80;;;5.18;;
57395;SDS011;43222;52.912;6.940;2023-08-31T05:32:21;10.38;;;4.47;;
57395;SDS011;43222;52.912;6.940;2023-08-31T05:34:47;7.65;;;4.57;;
57395;SDS011;43222;52.912;6.940;2023-08-31T05:37:13;9.07;;;5.20;;
57395;SDS011;43222;52.912;6.940;2023-08-31T05:39:39;8.43;;;4.40;;
57395;SDS011;43222;52.912;6.940;2023-08-31T05:42:05;9.07;;;4.93;;
57395;SDS011;43222;52.912;6.940;2023-08-31T05:44:31;8.40;;;4.70;;
57395;SDS011;43222;52.912;6.940;2023-08-31T05:46:57;7.50;;;4.07;;
57395;SDS011;43222;52.912;6.940;2023-08-31T05:49:24;6.75;;;3.38;;
57395;SDS011;43222;52.912;6.940;2023-08-31T05:51:50;6.82;;;3.00;;
57395;SDS011;43222;52.912;6.940;2023-08-31T05:54:16;7.60;;;3.20;;
57395;SDS011;43222;52.912;6.940;2023-08-31T05:56:42;7.45;;;2.80;;
57395;SDS011;43222;52.912;6.940;2023-08-31T05:59:08;7.05;;;2.80;;
57395;SDS011;43222;52.912;6.940;2023-08-31T06:01:34;5.72;;;2.50;;
57395;SDS011;43222;52.912;6.940;2023-08-31T06:04:03;5.63;;;2.33;;
57395;SDS011;43222;52.912;6.940;2023-08-31T06:06:30;5.60;;;2.13;;
57395;SDS011;43222;52.912;6.940;2023-08-31T06:08:58;7.38;;;2.17;;
57395;SDS011;43222;52.912;6.940;2023-08-31T06:11:24;5.38;;;2.33;;
57395;SDS011;43222;52.912;6.940;2023-08-31T06:13:50;5.97;;;2.05;;
57395;SDS011;43222;52.912;6.940;2023-08-31T06:16:16;5.97;;;1.90;;
57395;SDS011;43222;52.912;6.940;2023-08-31T06:18:42;5.65;;;2.10;;
57395;SDS011;43222;52.912;6.940;2023-08-31T06:21:08;6.50;;;2.13;;
57395;SDS011;43222;52.912;6.940;2023-08-31T06:23:34;6.10;;;2.30;;
57395;SDS011;43222;52.912;6.940;2023-08-31T06:26:00;5.97;;;1.83;;
57395;SDS011;43222;52.912;6.940;2023-08-31T06:28:27;7.05;;;2.00;;
57395;SDS011;43222;52.912;6.940;2023-08-31T06:30:53;5.18;;;1.80;;
57395;SDS011;43222;52.912;6.940;2023-08-31T06:33:19;5.72;;;1.63;;
57395;SDS011;43222;52.912;6.940;2023-08-31T06:35:45;5.25;;;1.60;;
57395;SDS011;43222;52.912;6.940;2023-08-31T06:38:13;6.40;;;1.80;;
57395;SDS011;43222;52.912;6.940;2023-08-31T06:40:41;6.78;;;1.95;;
57395;SDS011;43222;52.912;6.940;2023-08-31T06:43:08;6.78;;;1.80;;
57395;SDS011;43222;52.912;6.940;2023-08-31T06:45:34;5.75;;;1.60;;
57395;SDS011;43222;52.912;6.940;2023-08-31T06:48:00;5.63;;;1.40;;
57395;SDS011;43222;52.912;6.940;2023-08-31T06:50:27;5.43;;;1.58;;
57395;SDS011;43222;52.912;6.940;2023-08-31T06:52:53;5.95;;;1.50;;
57395;SDS011;43222;52.912;6.940;2023-08-31T06:55:19;5.82;;;1.70;;
57395;SDS011;43222;52.912;6.940;2023-08-31T06:57:45;7.72;;;1.80;;
57395;SDS011;43222;52.912;6.940;2023-08-31T07:00:11;6.72;;;1.50;;
57395;SDS011;43222;52.912;6.940;2023-08-31T07:02:40;6.13;;;1.63;;
57395;SDS011;43222;52.912;6.940;2023-08-31T07:05:07;5.72;;;1.77;;
57395;SDS011;43222;52.912;6.940;2023-08-31T07:07:34;6.68;;;1.70;;
57395;SDS011;43222;52.912;6.940;2023-08-31T07:10:00;6.72;;;1.48;;
57395;SDS011;43222;52.912;6.940;2023-08-31T07:12:26;5.32;;;1.50;;
57395;SDS011;43222;52.912;6.940;2023-08-31T07:14:52;4.53;;;1.40;;
57395;SDS011;43222;52.912;6.940;2023-08-31T07:17:18;5.70;;;1.60;;
57395;SDS011;43222;52.912;6.940;2023-08-31T07:19:44;5.25;;;1.65;;
57395;SDS011;43222;52.912;6.940;2023-08-31T07:22:10;7.90;;;1.67;;
57395;SDS011;43222;52.912;6.940;2023-08-31T07:24:37;6.22;;;1.80;;
57395;SDS011;43222;52.912;6.940;2023-08-31T07:27:03;7.97;;;1.75;;
57395;SDS011;43222;52.912;6.940;2023-08-31T07:29:29;5.53;;;1.75;;
57395;SDS011;43222;52.912;6.940;2023-08-31T07:31:56;6.25;;;1.85;;
57395;SDS011;43222;52.912;6.940;2023-08-31T07:34:22;5.88;;;1.70;;
57395;SDS011;43222;52.912;6.940;2023-08-31T07:36:48;7.28;;;1.65;;
57395;SDS011;43222;52.912;6.940;2023-08-31T07:39:14;4.43;;;1.50;;
57395;SDS011;43222;52.912;6.940;2023-08-31T07:41:42;6.78;;;1.60;;
57395;SDS011;43222;52.912;6.940;2023-08-31T07:44:08;6.43;;;1.63;;
57395;SDS011;43222;52.912;6.940;2023-08-31T07:46:34;5.93;;;1.40;;
57395;SDS011;43222;52.912;6.940;2023-08-31T07:49:00;7.93;;;1.90;;
57395;SDS011;43222;52.912;6.940;2023-08-31T07:51:28;6.40;;;1.42;;
57395;SDS011;43222;52.912;6.940;2023-08-31T07:53:54;5.50;;;1.50;;
57395;SDS011;43222;52.912;6.940;2023-08-31T07:56:20;6.40;;;1.38;;
57395;SDS011;43222;52.912;6.940;2023-08-31T07:58:47;6.95;;;1.50;;
57395;SDS011;43222;52.912;6.940;2023-08-31T08:01:13;5.05;;;1.40;;
57395;SDS011;43222;52.912;6.940;2023-08-31T08:03:39;5.85;;;1.20;;
57395;SDS011;43222;52.912;6.940;2023-08-31T08:06:05;5.35;;;1.60;;
57395;SDS011;43222;52.912;6.940;2023-08-31T08:08:31;5.93;;;1.23;;
57395;SDS011;43222;52.912;6.940;2023-08-31T08:10:57;10.48;;;1.60;;
57395;SDS011;43222;52.912;6.940;2023-08-31T08:13:24;6.10;;;1.38;;
57395;SDS011;43222;52.912;6.940;2023-08-31T08:15:50;5.60;;;1.20;;
57395;SDS011;43222;52.912;6.940;2023-08-31T08:18:16;4.38;;;1.00;;
57395;SDS011;43222;52.912;6.940;2023-08-31T08:20:42;6.47;;;1.42;;
57395;SDS011;43222;52.912;6.940;2023-08-31T08:23:08;6.63;;;1.25;;
57395;SDS011;43222;52.912;6.940;2023-08-31T08:25:34;4.85;;;0.95;;
57395;SDS011;43222;52.912;6.940;2023-08-31T08:28:00;6.10;;;1.20;;
57395;SDS011;43222;52.912;6.940;2023-08-31T08:30:28;7.50;;;1.33;;
57395;SDS011;43222;52.912;6.940;2023-08-31T08:32:54;7.68;;;1.40;;
57395;SDS011;43222;52.912;6.940;2023-08-31T08:35:20;8.00;;;1.50;;
57395;SDS011;43222;52.912;6.940;2023-08-31T08:37:47;7.22;;;1.48;;
57395;SDS011;43222;52.912;6.940;2023-08-31T08:40:13;5.93;;;1.48;;
57395;SDS011;43222;52.912;6.940;2023-08-31T08:42:40;5.57;;;1.40;;
57395;SDS011;43222;52.912;6.940;2023-08-31T08:45:13;7.38;;;1.40;;
57395;SDS011;43222;52.912;6.940;2023-08-31T08:47:43;6.70;;;1.40;;
57395;SDS011;43222;52.912;6.940;2023-08-31T08:50:13;6.65;;;1.13;;
57395;SDS011;43222;52.912;6.940;2023-08-31T08:52:39;6.45;;;1.20;;
57395;SDS011;43222;52.912;6.940;2023-08-31T08:55:06;4.30;;;1.10;;
57395;SDS011;43222;52.912;6.940;2023-08-31T08:57:33;5.47;;;1.20;;
57395;SDS011;43222;52.912;6.940;2023-08-31T08:59:59;7.10;;;1.65;;
57395;SDS011;43222;52.912;6.940;2023-08-31T09:02:25;8.88;;;1.60;;
57395;SDS011;43222;52.912;6.940;2023-08-31T09:04:51;9.45;;;1.20;;
57395;SDS011;43222;52.912;6.940;2023-08-31T09:07:23;5.45;;;1.02;;
57395;SDS011;43222;52.912;6.940;2023-08-31T09:09:49;5.28;;;1.00;;
57395;SDS011;43222;52.912;6.940;2023-08-31T09:12:16;4.00;;;0.82;;
57395;SDS011;43222;52.912;6.940;2023-08-31T09:14:42;5.63;;;1.13;;
57395;SDS011;43222;52.912;6.940;2023-08-31T09:17:08;5.15;;;0.93;;
57395;SDS011;43222;52.912;6.940;2023-08-31T09:19:34;4.68;;;0.93;;
57395;SDS011;43222;52.912;6.940;2023-08-31T09:22:00;6.18;;;0.80;;
57395;SDS011;43222;52.912;6.940;2023-08-31T09:24:27;5.75;;;0.93;;
57395;SDS011;43222;52.912;6.940;2023-08-31T09:26:55;6.13;;;0.98;;
57395;SDS011;43222;52.912;6.940;2023-08-31T09:29:22;4.43;;;0.77;;
57395;SDS011;43222;52.912;6.940;2023-08-31T09:31:48;3.42;;;0.70;;
57395;SDS011;43222;52.912;6.940;2023-08-31T09:34:14;5.38;;;0.80;;
57395;SDS011;43222;52.912;6.940;2023-08-31T09:36:41;1.95;;;0.52;;
57395;SDS011;43222;52.912;6.940;2023-08-31T09:39:07;3.22;;;0.70;;
57395;SDS011;43222;52.912;6.940;2023-08-31T09:41:34;2.28;;;0.70;;
57395;SDS011;43222;52.912;6.940;2023-08-31T09:44:16;3.20;;;0.57;;
57395;SDS011;43222;52.912;6.940;2023-08-31T09:46:43;2.72;;;0.52;;
57395;SDS011;43222;52.912;6.940;2023-08-31T09:49:09;2.28;;;0.50;;
57395;SDS011;43222;52.912;6.940;2023-08-31T09:51:36;3.20;;;0.60;;
57395;SDS011;43222;52.912;6.940;2023-08-31T09:54:05;5.18;;;0.60;;
57395;SDS011;43222;52.912;6.940;2023-08-31T09:56:32;3.17;;;0.60;;
57395;SDS011;43222;52.912;6.940;2023-08-31T09:58:59;5.10;;;0.70;;
57395;SDS011;43222;52.912;6.940;2023-08-31T10:01:27;3.95;;;0.60;;
57395;SDS011;43222;52.912;6.940;2023-08-31T10:03:53;3.97;;;0.70;;
57395;SDS011;43222;52.912;6.940;2023-08-31T10:06:20;5.53;;;0.90;;
57395;SDS011;43222;52.912;6.940;2023-08-31T10:08:47;3.95;;;0.73;;
57395;SDS011;43222;52.912;6.940;2023-08-31T10:11:14;4.43;;;0.77;;
57395;SDS011;43222;52.912;6.940;2023-08-31T10:13:40;4.53;;;0.63;;
57395;SDS011;43222;52.912;6.940;2023-08-31T10:16:07;5.82;;;0.95;;
57395;SDS011;43222;52.912;6.940;2023-08-31T10:18:36;3.00;;;0.70;;
57395;SDS011;43222;52.912;6.940;2023-08-31T10:21:02;4.07;;;0.70;;
57395;SDS011;43222;52.912;6.940;2023-08-31T10:23:28;5.68;;;1.10;;
57395;SDS011;43222;52.912;6.940;2023-08-31T10:28:22;3.90;;;0.65;;
57395;SDS011;43222;52.912;6.940;2023-08-31T10:31:04;3.00;;;0.50;;
57395;SDS011;43222;52.912;6.940;2023-08-31T10:33:31;1.90;;;0.73;;
57395;SDS011;43222;52.912;6.940;2023-08-31T10:35:57;4.20;;;0.80;;
57395;SDS011;43222;52.912;6.940;2023-08-31T10:38:30;3.15;;;0.60;;
57395;SDS011;43222;52.912;6.940;2023-08-31T10:41:00;1.83;;;0.60;;
57395;SDS011;43222;52.912;6.940;2023-08-31T10:45:53;3.25;;;0.60;;
57395;SDS011;43222;52.912;6.940;2023-08-31T10:48:20;6.20;;;1.10;;
57395;SDS011;43222;52.912;6.940;2023-08-31T10:50:46;2.70;;;0.60;;
57395;SDS011;43222;52.912;6.940;2023-08-31T10:53:12;3.88;;;0.80;;
57395;SDS011;43222;52.912;6.940;2023-08-31T10:55:51;4.07;;;0.80;;
57395;SDS011;43222;52.912;6.940;2023-08-31T10:58:17;3.65;;;0.60;;
57395;SDS011;43222;52.912;6.940;2023-08-31T11:00:47;3.90;;;0.70;;
57395;SDS011;43222;52.912;6.940;2023-08-31T11:03:16;4.82;;;0.70;;
57395;SDS011;43222;52.912;6.940;2023-08-31T11:05:52;3.90;;;0.80;;
57395;SDS011;43222;52.912;6.940;2023-08-31T11:08:22;3.90;;;0.70;;
57395;SDS011;43222;52.912;6.940;2023-08-31T11:10:48;3.75;;;0.55;;
57395;SDS011;43222;52.912;6.940;2023-08-31T11:13:20;4.68;;;0.80;;
57395;SDS011;43222;52.912;6.940;2023-08-31T11:15:48;2.20;;;0.60;;
57395;SDS011;43222;52.912;6.940;2023-08-31T11:18:14;3.53;;;0.50;;
57395;SDS011;43222;52.912;6.940;2023-08-31T11:20:43;3.67;;;0.57;;
57395;SDS011;43222;52.912;6.940;2023-08-31T11:23:09;3.70;;;0.82;;
57395;SDS011;43222;52.912;6.940;2023-08-31T11:25:35;6.68;;;1.08;;
57395;SDS011;43222;52.912;6.940;2023-08-31T11:28:02;3.47;;;0.88;;
57395;SDS011;43222;52.912;6.940;2023-08-31T11:30:30;4.50;;;0.82;;
57395;SDS011;43222;52.912;6.940;2023-08-31T11:32:57;4.28;;;0.90;;
57395;SDS011;43222;52.912;6.940;2023-08-31T11:35:23;7.10;;;1.00;;
57395;SDS011;43222;52.912;6.940;2023-08-31T11:37:51;4.00;;;0.82;;
57395;SDS011;43222;52.912;6.940;2023-08-31T11:40:17;3.80;;;0.90;;
57395;SDS011;43222;52.912;6.940;2023-08-31T11:42:44;2.80;;;0.73;;
57395;SDS011;43222;52.912;6.940;2023-08-31T11:45:10;4.13;;;0.75;;
57395;SDS011;43222;52.912;6.940;2023-08-31T11:47:37;3.58;;;0.73;;
57395;SDS011;43222;52.912;6.940;2023-08-31T11:50:04;2.95;;;0.70;;
57395;SDS011;43222;52.912;6.940;2023-08-31T11:52:31;2.63;;;0.60;;
57395;SDS011;43222;52.912;6.940;2023-08-31T11:54:58;3.13;;;0.70;;
57395;SDS011;43222;52.912;6.940;2023-08-31T11:57:25;3.35;;;0.63;;
57395;SDS011;43222;52.912;6.940;2023-08-31T11:59:51;3.00;;;0.70;;
57395;SDS011;43222;52.912;6.940;2023-08-31T12:02:18;2.35;;;0.82;;
57395;SDS011;43222;52.912;6.940;2023-08-31T12:04:45;4.45;;;0.60;;
57395;SDS011;43222;52.912;6.940;2023-08-31T12:07:11;4.38;;;0.90;;
57395;SDS011;43222;52.912;6.940;2023-08-31T12:09:39;4.18;;;0.90;;
57395;SDS011;43222;52.912;6.940;2023-08-31T12:12:05;4.45;;;0.80;;
57395;SDS011;43222;52.912;6.940;2023-08-31T12:14:33;4.63;;;0.80;;
57395;SDS011;43222;52.912;6.940;2023-08-31T12:17:03;7.07;;;1.05;;
57395;SDS011;43222;52.912;6.940;2023-08-31T12:19:30;3.85;;;0.80;;
57395;SDS011;43222;52.912;6.940;2023-08-31T12:21:56;3.55;;;0.82;;
57395;SDS011;43222;52.912;6.940;2023-08-31T12:24:22;5.15;;;1.05;;
57395;SDS011;43222;52.912;6.940;2023-08-31T12:26:48;4.15;;;1.15;;
57395;SDS011;43222;52.912;6.940;2023-08-31T12:29:15;5.03;;;0.95;;
57395;SDS011;43222;52.912;6.940;2023-08-31T12:31:41;3.90;;;0.88;;
57395;SDS011;43222;52.912;6.940;2023-08-31T12:34:10;6.35;;;0.80;;
57395;SDS011;43222;52.912;6.940;2023-08-31T12:36:37;6.78;;;1.10;;
57395;SDS011;43222;52.912;6.940;2023-08-31T12:39:05;4.00;;;0.73;;
57395;SDS011;43222;52.912;6.940;2023-08-31T12:41:34;3.72;;;0.98;;
57395;SDS011;43222;52.912;6.940;2023-08-31T12:44:01;3.47;;;0.73;;
57395;SDS011;43222;52.912;6.940;2023-08-31T12:46:28;5.25;;;0.90;;
57395;SDS011;43222;52.912;6.940;2023-08-31T12:48:54;5.20;;;0.80;;
57395;SDS011;43222;52.912;6.940;2023-08-31T12:51:20;4.55;;;0.90;;
57395;SDS011;43222;52.912;6.940;2023-08-31T12:53:47;4.25;;;0.90;;
57395;SDS011;43222;52.912;6.940;2023-08-31T12:56:13;6.22;;;0.93;;
57395;SDS011;43222;52.912;6.940;2023-08-31T12:58:46;5.18;;;0.90;;
57395;SDS011;43222;52.912;6.940;2023-08-31T13:01:12;3.92;;;1.20;;
57395;SDS011;43222;52.912;6.940;2023-08-31T13:03:38;3.63;;;0.70;;
57395;SDS011;43222;52.912;6.940;2023-08-31T13:06:04;4.43;;;0.90;;
57395;SDS011;43222;52.912;6.940;2023-08-31T13:08:30;6.57;;;0.88;;
57395;SDS011;43222;52.912;6.940;2023-08-31T13:10:56;4.40;;;1.00;;
57395;SDS011;43222;52.912;6.940;2023-08-31T13:13:22;4.15;;;0.98;;
57395;SDS011;43222;52.912;6.940;2023-08-31T13:15:49;4.78;;;1.13;;
57395;SDS011;43222;52.912;6.940;2023-08-31T13:18:15;11.45;;;1.67;;
57395;SDS011;43222;52.912;6.940;2023-08-31T13:20:48;6.05;;;1.23;;
57395;SDS011;43222;52.912;6.940;2023-08-31T13:23:14;4.80;;;1.00;;
57395;SDS011;43222;52.912;6.940;2023-08-31T13:25:40;7.38;;;1.00;;
57395;SDS011;43222;52.912;6.940;2023-08-31T13:28:06;4.35;;;0.95;;
57395;SDS011;43222;52.912;6.940;2023-08-31T13:30:32;3.75;;;0.80;;
57395;SDS011;43222;52.912;6.940;2023-08-31T13:32:58;3.13;;;0.80;;
57395;SDS011;43222;52.912;6.940;2023-08-31T13:35:24;5.78;;;0.90;;
57395;SDS011;43222;52.912;6.940;2023-08-31T13:37:51;3.50;;;0.70;;
57395;SDS011;43222;52.912;6.940;2023-08-31T13:40:17;3.50;;;0.70;;
57395;SDS011;43222;52.912;6.940;2023-08-31T13:43:05;3.50;;;0.90;;
57395;SDS011;43222;52.912;6.940;2023-08-31T13:45:30;3.92;;;0.90;;
57395;SDS011;43222;52.912;6.940;2023-08-31T13:47:56;6.32;;;1.10;;
57395;SDS011;43222;52.912;6.940;2023-08-31T13:50:24;3.33;;;0.98;;
57395;SDS011;43222;52.912;6.940;2023-08-31T13:52:51;5.13;;;0.95;;
57395;SDS011;43222;52.912;6.940;2023-08-31T13:55:17;5.82;;;1.08;;
57395;SDS011;43222;52.912;6.940;2023-08-31T13:57:43;7.30;;;1.33;;
57395;SDS011;43222;52.912;6.940;2023-08-31T14:00:09;3.40;;;0.82;;
57395;SDS011;43222;52.912;6.940;2023-08-31T14:02:36;5.68;;;1.00;;
57395;SDS011;43222;52.912;6.940;2023-08-31T14:05:02;6.55;;;1.05;;
57395;SDS011;43222;52.912;6.940;2023-08-31T14:07:29;5.32;;;1.10;;
57395;SDS011;43222;52.912;6.940;2023-08-31T14:09:55;5.43;;;1.10;;
57395;SDS011;43222;52.912;6.940;2023-08-31T14:12:21;5.43;;;1.10;;
57395;SDS011;43222;52.912;6.940;2023-08-31T14:14:47;4.15;;;1.20;;
57395;SDS011;43222;52.912;6.940;2023-08-31T14:17:13;5.57;;;1.15;;
57395;SDS011;43222;52.912;6.940;2023-08-31T14:19:40;5.88;;;1.02;;
57395;SDS011;43222;52.912;6.940;2023-08-31T14:22:06;4.65;;;1.00;;
57395;SDS011;43222;52.912;6.940;2023-08-31T14:24:32;3.10;;;0.82;;
57395;SDS011;43222;52.912;6.940;2023-08-31T14:26:58;5.90;;;1.10;;
57395;SDS011;43222;52.912;6.940;2023-08-31T14:29:24;6.40;;;1.23;;
57395;SDS011;43222;52.912;6.940;2023-08-31T14:31:50;5.55;;;1.17;;
57395;SDS011;43222;52.912;6.940;2023-08-31T14:34:19;5.93;;;1.00;;
57395;SDS011;43222;52.912;6.940;2023-08-31T14:36:45;5.93;;;1.38;;
57395;SDS011;43222;52.912;6.940;2023-08-31T14:39:11;5.40;;;1.10;;
57395;SDS011;43222;52.912;6.940;2023-08-31T14:41:37;3.78;;;0.90;;
57395;SDS011;43222;52.912;6.940;2023-08-31T14:44:03;4.65;;;1.00;;
57395;SDS011;43222;52.912;6.940;2023-08-31T14:46:29;5.47;;;1.10;;
57395;SDS011;43222;52.912;6.940;2023-08-31T14:48:56;3.47;;;0.98;;
57395;SDS011;43222;52.912;6.940;2023-08-31T14:51:22;4.53;;;0.90;;
57395;SDS011;43222;52.912;6.940;2023-08-31T14:53:48;4.97;;;1.20;;
57395;SDS011;43222;52.912;6.940;2023-08-31T14:56:14;5.32;;;1.25;;